createdAt,value
2022-11-23T00:00:19.830Z,7.34
2022-11-23T00:03:15.973Z,7.31
2022-11-23T00:05:48.300Z,7.29
2022-11-23T00:08:20.587Z,7.29
2022-11-23T00:10:52.924Z,7.27
2022-11-23T00:13:25.239Z,7.26
2022-11-23T00:15:57.540Z,7.24
2022-11-23T00:18:29.943Z,7.22
2022-11-23T00:21:06.563Z,7.22
2022-11-23T00:23:39.339Z,7.23
2022-11-23T00:26:12.236Z,7.23
2022-11-23T00:28:44.959Z,7.23
2022-11-23T00:31:21.326Z,7.24
2022-11-23T00:33:55.631Z,7.22
2022-11-23T00:36:29.339Z,7.19
2022-11-23T00:39:01.651Z,7.17
2022-11-23T00:41:34.032Z,7.16
2022-11-23T00:44:08.063Z,7.13
2022-11-23T00:46:40.531Z,7.09
2022-11-23T00:49:12.940Z,7.09
2022-11-23T00:51:45.727Z,7.10
2022-11-23T00:54:18.493Z,7.09
2022-11-23T00:56:51.155Z,7.09
2022-11-23T00:59:23.752Z,7.07
2022-11-23T01:01:56.595Z,7.05
2022-11-23T01:04:29.386Z,7.03
2022-11-23T01:07:01.659Z,7.02
2022-11-23T01:09:34.073Z,7.01
2022-11-23T01:12:07.202Z,6.99
2022-11-23T01:14:39.631Z,6.98
2022-11-23T01:17:13.503Z,6.98
2022-11-23T01:19:46.063Z,6.95
2022-11-23T01:22:20.379Z,6.94
2022-11-23T01:24:52.698Z,6.93
2022-11-23T01:27:24.978Z,6.91
2022-11-23T01:29:57.471Z,6.89
2022-11-23T01:32:29.827Z,6.90
2022-11-23T01:35:02.151Z,6.90
2022-11-23T01:37:34.471Z,6.90
2022-11-23T01:40:08.330Z,6.93
2022-11-23T01:42:56.283Z,6.93
2022-11-23T01:45:37.978Z,6.93
2022-11-23T01:48:15.153Z,6.94
2022-11-23T01:50:52.952Z,6.96
2022-11-23T01:53:26.214Z,6.98
2022-11-23T01:56:01.474Z,6.99
2022-11-23T01:58:38.473Z,6.99
2022-11-23T02:01:11.835Z,6.97
2022-11-23T02:03:48.657Z,6.96
2022-11-23T02:06:23.916Z,6.96
2022-11-23T02:08:57.105Z,6.97
2022-11-23T02:11:29.534Z,6.97
2022-11-23T02:14:02.641Z,6.98
2022-11-23T02:16:35.445Z,6.99
2022-11-23T02:19:15.702Z,7.00
2022-11-23T02:21:49.651Z,7.01
2022-11-23T02:24:28.292Z,7.02
2022-11-23T02:27:02.503Z,7.04
2022-11-23T02:29:34.979Z,7.06
2022-11-23T02:32:07.597Z,7.10
2022-11-23T02:34:39.897Z,7.13
2022-11-23T02:37:14.310Z,7.16
2022-11-23T02:39:50.149Z,7.19
2022-11-23T02:42:22.579Z,7.21
2022-11-23T02:45:05.745Z,7.23
2022-11-23T02:47:38.044Z,7.26
2022-11-23T02:50:11.286Z,7.30
2022-11-23T02:52:44.197Z,7.31
2022-11-23T02:55:16.672Z,7.32
2022-11-23T02:57:49.128Z,7.33
2022-11-23T03:00:21.675Z,7.32
2022-11-23T03:02:54.102Z,7.32
2022-11-23T03:05:26.973Z,7.32
2022-11-23T03:07:59.652Z,7.33
2022-11-23T03:10:33.219Z,7.32
2022-11-23T03:13:06.743Z,7.31
2022-11-23T03:15:39.658Z,7.32
2022-11-23T03:18:11.911Z,7.32
2022-11-23T03:20:44.317Z,7.33
2022-11-23T03:23:16.826Z,7.34
2022-11-23T03:25:55.722Z,7.34
2022-11-23T03:28:28.762Z,7.33
2022-11-23T03:31:01.200Z,7.33
2022-11-23T03:33:34.031Z,7.33
2022-11-23T03:36:07.556Z,7.33
2022-11-23T03:38:39.902Z,7.33
2022-11-23T03:41:12.271Z,7.33
2022-11-23T03:43:44.807Z,7.32
2022-11-23T03:46:17.071Z,7.34
2022-11-23T03:48:49.362Z,7.37
2022-11-23T03:51:21.821Z,7.39
2022-11-23T03:53:54.474Z,7.41
2022-11-23T03:56:27.447Z,7.44
2022-11-23T03:59:02.242Z,7.48
2022-11-23T04:01:34.958Z,7.50
2022-11-23T04:04:07.659Z,7.54
2022-11-23T04:06:40.010Z,7.53
2022-11-23T04:09:13.179Z,7.61
2022-11-23T04:11:45.560Z,7.63
2022-11-23T04:14:18.242Z,7.65
2022-11-23T04:16:50.497Z,7.66
2022-11-23T04:19:23.190Z,7.66
2022-11-23T04:21:56.941Z,7.69
2022-11-23T04:24:30.593Z,7.71
2022-11-23T04:27:02.942Z,7.74
2022-11-23T04:29:36.064Z,7.78
2022-11-23T04:32:08.638Z,7.81
2022-11-23T04:34:41.274Z,7.86
2022-11-23T04:37:13.821Z,7.88
2022-11-23T04:39:46.473Z,7.88
2022-11-23T04:42:18.813Z,7.89
2022-11-23T04:44:51.296Z,7.90
2022-11-23T04:47:24.818Z,7.92
2022-11-23T04:49:57.124Z,7.93
2022-11-23T04:52:29.405Z,7.94
2022-11-23T04:55:01.722Z,7.96
2022-11-23T04:57:34.027Z,7.97
2022-11-23T05:00:07.735Z,8.00
2022-11-23T05:02:40.310Z,8.02
2022-11-23T05:05:13.431Z,8.04
2022-11-23T05:07:45.787Z,8.07
2022-11-23T05:10:19.257Z,8.09
2022-11-23T05:12:51.932Z,8.11
2022-11-23T05:15:25.638Z,8.13
2022-11-23T05:18:04.680Z,8.13
2022-11-23T05:20:37.173Z,8.14
2022-11-23T05:23:10.160Z,8.17
2022-11-23T05:25:44.783Z,8.19
2022-11-23T05:31:13.112Z,8.22
2022-11-23T05:33:45.393Z,8.24
2022-11-23T05:36:17.739Z,8.25
2022-11-23T05:38:51.701Z,8.27
2022-11-23T05:41:24.075Z,8.29
2022-11-23T05:43:56.666Z,8.30
2022-11-23T05:46:30.584Z,8.33
2022-11-23T05:49:03.849Z,8.34
2022-11-23T05:51:36.175Z,8.36
2022-11-23T05:54:08.767Z,8.39
2022-11-23T05:56:42.186Z,8.42
2022-11-23T05:59:15.519Z,8.45
2022-11-23T06:01:47.754Z,8.48
2022-11-23T06:04:20.432Z,8.50
2022-11-23T06:06:54.601Z,8.53
2022-11-23T06:09:27.591Z,8.55
2022-11-23T06:11:59.823Z,8.58
2022-11-23T06:14:32.206Z,8.61
2022-11-23T06:17:04.499Z,8.63
2022-11-23T06:19:36.855Z,8.64
2022-11-23T06:22:09.945Z,8.66
2022-11-23T06:24:42.313Z,8.67
2022-11-23T06:27:18.232Z,8.69
2022-11-23T06:29:50.864Z,8.71
2022-11-23T06:32:23.190Z,8.74
2022-11-23T06:35:00.548Z,8.76
2022-11-23T06:37:33.419Z,8.77
2022-11-23T06:40:06.296Z,8.80
2022-11-23T06:42:40.299Z,8.84
2022-11-23T06:45:14.022Z,8.87
2022-11-23T06:47:46.842Z,8.89
2022-11-23T06:50:19.660Z,8.92
2022-11-23T06:52:57.812Z,8.95
2022-11-23T06:55:30.221Z,8.99
2022-11-23T06:58:02.724Z,9.02
2022-11-23T07:00:36.291Z,9.04
2022-11-23T07:03:09.037Z,9.07
2022-11-23T07:05:43.650Z,9.10
2022-11-23T07:08:18.348Z,9.14
2022-11-23T07:10:52.047Z,9.17
2022-11-23T07:13:25.815Z,9.21
2022-11-23T07:15:58.649Z,9.24
2022-11-23T07:18:31.677Z,9.26
2022-11-23T07:21:04.055Z,9.29
2022-11-23T07:23:40.793Z,9.31
2022-11-23T07:26:13.524Z,9.34
2022-11-23T07:28:46.589Z,9.37
2022-11-23T07:31:20.694Z,9.40
2022-11-23T07:33:54.643Z,9.43
2022-11-23T07:36:29.586Z,9.46
2022-11-23T07:39:02.690Z,9.48
2022-11-23T07:41:35.363Z,9.50
2022-11-23T07:44:09.761Z,9.52
2022-11-23T07:46:42.852Z,9.53
2022-11-23T07:49:15.863Z,9.58
2022-11-23T07:51:50.384Z,9.60
2022-11-23T07:54:23.953Z,9.63
2022-11-23T07:56:56.414Z,9.65
2022-11-23T07:59:29.652Z,9.69
2022-11-23T08:02:02.244Z,9.71
2022-11-23T08:04:35.009Z,9.73
2022-11-23T08:07:08.056Z,9.75
2022-11-23T08:09:41.891Z,9.76
2022-11-23T08:12:14.517Z,9.76
2022-11-23T08:14:47.397Z,9.79
2022-11-23T08:17:19.789Z,9.81
2022-11-23T08:19:52.458Z,9.83
2022-11-23T08:22:25.005Z,9.86
2022-11-23T08:24:58.590Z,9.88
2022-11-23T08:27:31.112Z,9.90
2022-11-23T08:30:03.572Z,9.92
2022-11-23T08:32:35.933Z,9.95
2022-11-23T08:35:09.479Z,9.97
2022-11-23T08:37:42.208Z,10.00
2022-11-23T08:40:19.460Z,10.02
2022-11-23T08:42:55.540Z,10.04
2022-11-23T08:45:28.147Z,10.06
2022-11-23T08:48:04.269Z,10.07
2022-11-23T08:50:37.322Z,10.08
2022-11-23T08:53:10.962Z,10.10
2022-11-23T08:55:43.661Z,10.12
2022-11-23T08:58:16.630Z,10.15
2022-11-23T09:00:50.007Z,10.22
2022-11-23T09:03:23.296Z,10.29
2022-11-23T09:06:00.925Z,10.34
2022-11-23T09:08:35.242Z,10.37
2022-11-23T09:11:11.134Z,10.39
2022-11-23T09:13:42.774Z,10.46
2022-11-23T09:16:16.624Z,10.47
2022-11-23T09:18:50.186Z,10.50
2022-11-23T09:21:24.874Z,10.51
2022-11-23T09:23:58.519Z,10.52
2022-11-23T09:26:33.255Z,10.55
2022-11-23T09:29:06.028Z,10.59
2022-11-23T09:31:38.770Z,10.61
2022-11-23T09:34:13.026Z,10.65
2022-11-23T09:36:47.269Z,10.66
2022-11-23T09:39:21.844Z,10.64
2022-11-23T09:42:14.798Z,10.61
2022-11-23T09:45:00.746Z,10.61
2022-11-23T09:48:01.959Z,10.66
2022-11-23T09:50:45.336Z,10.70
2022-11-23T09:53:21.695Z,10.75
2022-11-23T09:55:59.093Z,10.80
2022-11-23T09:58:38.178Z,10.86
2022-11-23T10:01:16.856Z,10.91
2022-11-23T10:03:50.446Z,10.93
2022-11-23T10:06:27.057Z,10.96
2022-11-23T10:09:13.625Z,10.98
2022-11-23T10:12:14.811Z,11.00
2022-11-23T10:15:06.759Z,11.07
2022-11-23T10:17:59.956Z,11.10
2022-11-23T10:20:44.931Z,11.15
2022-11-23T10:23:29.659Z,11.21
2022-11-23T10:26:04.738Z,11.24
2022-11-23T10:28:38.971Z,11.29
2022-11-23T10:31:17.797Z,11.32
2022-11-23T10:34:04.604Z,11.35
2022-11-23T10:36:41.255Z,11.38
2022-11-23T10:39:24.539Z,11.40
2022-11-23T10:42:01.984Z,11.42
2022-11-23T10:44:38.842Z,11.44
2022-11-23T10:47:11.410Z,11.43
2022-11-23T10:49:59.632Z,11.42
2022-11-23T10:52:34.380Z,11.43
2022-11-23T10:55:12.211Z,11.46
2022-11-23T10:57:48.211Z,11.49
2022-11-23T11:00:28.755Z,11.52
2022-11-23T11:03:22.709Z,11.54
2022-11-23T11:06:14.666Z,11.57
2022-11-23T11:08:56.508Z,11.58
2022-11-23T11:11:34.095Z,11.60
2022-11-23T11:14:18.576Z,11.59
2022-11-23T11:16:55.412Z,11.60
2022-11-23T11:19:33.232Z,11.61
2022-11-23T11:22:27.896Z,11.62
2022-11-23T11:25:00.447Z,11.61
2022-11-23T11:27:34.246Z,11.60
2022-11-23T11:30:22.889Z,11.61
2022-11-23T11:33:06.275Z,11.61
2022-11-23T11:35:45.339Z,11.62
2022-11-23T11:38:22.464Z,11.63
2022-11-23T11:40:57.810Z,11.61
2022-11-23T11:43:39.837Z,11.60
2022-11-23T11:46:33.457Z,11.59
2022-11-23T11:49:15.086Z,11.61
2022-11-23T11:51:53.643Z,11.60
2022-11-23T11:54:36.399Z,11.61
2022-11-23T11:57:18.057Z,11.62
2022-11-23T11:59:53.020Z,11.65
2022-11-23T12:02:29.686Z,11.65
2022-11-23T12:05:15.351Z,11.64
2022-11-23T12:07:56.734Z,11.64
2022-11-23T12:10:35.426Z,11.65
2022-11-23T12:13:10.642Z,11.66
2022-11-23T12:15:50.221Z,11.66
2022-11-23T12:18:56.872Z,11.66
2022-11-23T12:21:55.912Z,11.66
2022-11-23T12:24:40.921Z,11.65
2022-11-23T12:27:23.832Z,11.67
2022-11-23T12:30:15.704Z,11.70
2022-11-23T12:33:02.690Z,11.73
2022-11-23T12:35:56.346Z,11.72
2022-11-23T12:38:39.647Z,11.74
2022-11-23T12:41:30.964Z,11.77
2022-11-23T12:44:33.289Z,11.77
2022-11-23T12:47:14.813Z,11.77
2022-11-23T12:49:53.238Z,11.78
2022-11-23T12:52:41.144Z,11.80
2022-11-23T12:55:24.988Z,11.82
2022-11-23T12:58:06.809Z,11.84
2022-11-23T13:00:46.597Z,11.85
2022-11-23T13:03:49.795Z,11.85
2022-11-23T13:10:22.282Z,11.81
2022-11-23T13:13:15.831Z,11.81
2022-11-23T13:16:09.965Z,11.82
2022-11-23T13:19:04.427Z,11.81
2022-11-23T13:21:41.895Z,11.80
2022-11-23T13:24:32.341Z,11.80
2022-11-23T13:27:42.708Z,11.81
2022-11-23T13:33:39.132Z,11.82
2022-11-23T13:37:10.669Z,11.82
2022-11-23T13:40:06.195Z,11.81
2022-11-23T13:42:40.296Z,11.81
2022-11-23T13:45:30.909Z,11.80
2022-11-23T13:48:49.003Z,11.79
2022-11-23T13:51:13.651Z,11.78
2022-11-23T13:53:59.583Z,11.77
2022-11-23T13:56:41.647Z,11.75
2022-11-23T13:59:35.318Z,11.70
2022-11-23T14:02:30.723Z,11.63
2022-11-23T14:05:54.094Z,11.58
2022-11-23T14:08:29.628Z,11.57
2022-11-23T14:11:11.419Z,11.58
2022-11-23T14:13:53.476Z,11.57
2022-11-23T14:16:43.655Z,11.53
2022-11-23T14:19:26.224Z,11.46
2022-11-23T14:22:11.110Z,11.42
2022-11-23T14:25:04.824Z,11.39
2022-11-23T14:27:48.569Z,11.39
2022-11-23T14:30:43.223Z,11.39
2022-11-23T14:33:31.503Z,11.39
2022-11-23T14:36:20.220Z,11.39
2022-11-23T14:39:17.978Z,11.39
2022-11-23T14:41:55.448Z,11.34
2022-11-23T14:44:34.166Z,11.32
2022-11-23T14:47:12.262Z,11.31
2022-11-23T14:49:53.660Z,11.33
2022-11-23T14:52:28.956Z,11.33
2022-11-23T14:55:05.504Z,11.33
2022-11-23T14:57:46.109Z,11.34
2022-11-23T15:00:31.797Z,11.36
2022-11-23T15:03:42.434Z,11.37
2022-11-23T15:06:10.815Z,11.38
2022-11-23T15:08:52.246Z,11.39
2022-11-23T15:11:30.532Z,11.39
2022-11-23T15:14:06.014Z,11.39
2022-11-23T15:16:43.628Z,11.38
2022-11-23T15:19:28.628Z,11.36
2022-11-23T15:22:01.731Z,11.34
2022-11-23T15:24:34.348Z,11.33
2022-11-23T15:27:12.554Z,11.31
2022-11-23T15:29:54.806Z,11.27
2022-11-23T15:32:34.144Z,11.19
2022-11-23T15:35:12.001Z,11.15
2022-11-23T15:37:48.960Z,11.12
2022-11-23T15:40:24.742Z,11.13
2022-11-23T15:42:57.395Z,11.10
2022-11-23T15:46:04.023Z,11.08
2022-11-23T15:48:38.626Z,11.07
2022-11-23T15:51:27.099Z,11.06
2022-11-23T15:54:02.091Z,11.04
2022-11-23T15:56:36.567Z,11.06
2022-11-23T15:59:34.524Z,11.06
2022-11-23T16:02:15.515Z,11.09
2022-11-23T16:04:48.414Z,11.10
2022-11-23T16:07:23.845Z,11.08
2022-11-23T16:10:20.796Z,11.05
2022-11-23T16:12:54.564Z,11.00
2022-11-23T16:15:44.608Z,10.99
2022-11-23T16:18:27.842Z,10.99
2022-11-23T16:21:05.182Z,10.99
2022-11-23T16:23:49.407Z,11.01
2022-11-23T16:26:31.372Z,11.05
2022-11-23T16:29:06.046Z,11.07
2022-11-23T16:31:42.302Z,11.08
2022-11-23T16:34:17.822Z,11.08
2022-11-23T16:36:51.211Z,11.07
2022-11-23T16:39:24.279Z,11.05
2022-11-23T16:41:57.382Z,11.06
2022-11-23T16:44:36.297Z,11.09
2022-11-23T16:47:25.787Z,11.13
2022-11-23T16:50:00.135Z,11.14
2022-11-23T16:52:32.786Z,11.12
2022-11-23T16:55:08.581Z,11.06
2022-11-23T16:57:44.634Z,10.98
2022-11-23T17:00:18.088Z,10.97
2022-11-23T17:02:53.066Z,10.96
2022-11-23T17:05:26.112Z,10.98
2022-11-23T17:07:59.234Z,10.97
2022-11-23T17:10:31.844Z,10.93
2022-11-23T17:13:04.330Z,10.92
2022-11-23T17:15:37.875Z,10.89
2022-11-23T17:18:15.779Z,10.86
2022-11-23T17:20:49.955Z,10.82
2022-11-23T17:23:22.450Z,10.79
2022-11-23T17:25:55.035Z,10.81
2022-11-23T17:28:28.971Z,10.83
2022-11-23T17:31:01.988Z,10.81
2022-11-23T17:33:35.244Z,10.81
2022-11-23T17:36:10.520Z,10.78
2022-11-23T17:38:47.296Z,10.77
2022-11-23T17:41:19.811Z,10.75
2022-11-23T17:43:52.571Z,10.74
2022-11-23T17:46:25.616Z,10.73
2022-11-23T17:49:02.534Z,10.71
2022-11-23T17:51:35.171Z,10.69
2022-11-23T17:54:08.220Z,10.69
2022-11-23T17:56:40.978Z,10.73
2022-11-23T17:59:13.478Z,10.76
2022-11-23T18:01:48.206Z,10.76
2022-11-23T18:04:20.668Z,10.75
2022-11-23T18:06:53.532Z,10.73
2022-11-23T18:09:27.232Z,10.72
2022-11-23T18:12:00.524Z,10.70
2022-11-23T18:14:32.966Z,10.70
2022-11-23T18:17:05.570Z,10.72
2022-11-23T18:19:38.045Z,10.72
2022-11-23T18:22:10.489Z,10.73
2022-11-23T18:24:43.254Z,10.75
2022-11-23T18:27:15.631Z,10.77
2022-11-23T18:29:48.866Z,10.75
2022-11-23T18:32:21.219Z,10.70
2022-11-23T18:34:53.566Z,10.65
2022-11-23T18:37:25.815Z,10.63
2022-11-23T18:39:58.235Z,10.64
2022-11-23T18:42:30.695Z,10.66
2022-11-23T18:45:03.527Z,10.68
2022-11-23T18:47:36.626Z,10.72
2022-11-23T18:50:10.820Z,10.74
2022-11-23T18:52:43.150Z,10.77
2022-11-23T18:55:15.597Z,10.78
2022-11-23T18:57:48.616Z,10.82
2022-11-23T19:00:22.618Z,10.83
2022-11-23T19:02:56.878Z,10.82
2022-11-23T19:05:34.307Z,10.82
2022-11-23T19:08:10.239Z,10.81
2022-11-23T19:10:43.545Z,10.82
2022-11-23T19:13:16.162Z,10.86
2022-11-23T19:15:48.971Z,10.88
2022-11-23T19:18:21.281Z,10.88
2022-11-23T19:20:53.876Z,10.89
2022-11-23T19:23:29.785Z,10.89
2022-11-23T19:26:05.502Z,10.91
2022-11-23T19:28:40.157Z,10.91
2022-11-23T19:31:18.500Z,10.91
2022-11-23T19:33:54.257Z,10.91
2022-11-23T19:36:28.595Z,10.88
2022-11-23T19:39:01.695Z,10.89
2022-11-23T19:41:34.170Z,10.90
2022-11-23T19:44:07.321Z,10.91
2022-11-23T19:46:40.270Z,10.92
2022-11-23T19:49:12.703Z,10.93
2022-11-23T19:51:45.368Z,10.95
2022-11-23T19:54:18.168Z,10.96
2022-11-23T19:56:53.796Z,10.96
2022-11-23T19:59:27.547Z,11.01
2022-11-23T20:02:00.316Z,11.04
2022-11-23T20:04:33.455Z,11.07
2022-11-23T20:07:06.380Z,11.11
2022-11-23T20:09:39.656Z,11.10
2022-11-23T20:12:13.490Z,11.15
2022-11-23T20:14:47.582Z,11.13
2022-11-23T20:17:20.054Z,11.11
2022-11-23T20:19:53.387Z,11.09
2022-11-23T20:22:25.811Z,11.07
2022-11-23T20:25:00.159Z,11.09
2022-11-23T20:27:33.141Z,11.12
2022-11-23T20:30:10.439Z,11.11
2022-11-23T20:32:43.917Z,11.08
2022-11-23T20:35:16.510Z,11.06
2022-11-23T20:37:49.248Z,11.05
2022-11-23T20:40:22.154Z,11.01
2022-11-23T20:42:56.311Z,11.01
2022-11-23T20:45:29.331Z,11.02
2022-11-23T20:48:01.997Z,11.05
2022-11-23T20:50:35.247Z,11.07
2022-11-23T20:53:09.403Z,11.08
2022-11-23T20:55:42.263Z,11.07
2022-11-23T20:58:18.002Z,11.03
2022-11-23T21:00:51.560Z,11.01
2022-11-23T21:03:24.564Z,10.98
2022-11-23T21:05:58.099Z,10.98
2022-11-23T21:08:34.663Z,11.00
2022-11-23T21:11:30.117Z,11.02
2022-11-23T21:14:16.990Z,11.03
2022-11-23T21:16:53.637Z,11.02
2022-11-23T21:19:29.096Z,11.04
2022-11-23T21:22:03.949Z,11.07
2022-11-23T21:24:37.020Z,11.09
2022-11-23T21:27:13.783Z,11.12
2022-11-23T21:29:46.678Z,11.14
2022-11-23T21:32:20.368Z,11.15
2022-11-23T21:34:54.598Z,11.17
2022-11-23T21:37:27.735Z,11.19
2022-11-23T21:40:00.143Z,11.21
2022-11-23T21:42:32.582Z,11.21
2022-11-23T21:45:05.290Z,11.22
2022-11-23T21:47:37.896Z,11.22
2022-11-23T21:50:11.999Z,11.20
2022-11-23T21:52:44.332Z,11.21
2022-11-23T21:55:17.245Z,11.22
2022-11-23T21:57:49.768Z,11.22
2022-11-23T22:00:28.430Z,11.19
2022-11-23T22:03:03.856Z,11.15
2022-11-23T22:05:36.226Z,11.10
2022-11-23T22:11:02.925Z,11.05
2022-11-23T22:13:37.095Z,11.02
2022-11-23T22:16:17.990Z,11.02
2022-11-23T22:18:55.581Z,11.00
2022-11-23T22:21:33.241Z,10.97
2022-11-23T22:24:07.101Z,10.92
2022-11-23T22:26:41.440Z,10.87
2022-11-23T22:29:14.506Z,10.82
2022-11-23T22:31:46.909Z,10.77
2022-11-23T22:34:19.519Z,10.73
2022-11-23T22:36:54.059Z,10.66
2022-11-23T22:39:26.897Z,10.62
2022-11-23T22:42:00.743Z,10.62
2022-11-23T22:44:33.417Z,10.60
2022-11-23T22:47:06.335Z,10.56
2022-11-23T22:49:39.595Z,10.51
2022-11-23T22:52:12.338Z,10.48
2022-11-23T22:54:44.901Z,10.48
2022-11-23T22:57:17.320Z,10.48
2022-11-23T22:59:50.203Z,10.47
2022-11-23T23:02:23.613Z,10.47
2022-11-23T23:04:56.088Z,10.47
2022-11-23T23:07:31.466Z,10.45
2022-11-23T23:10:04.014Z,10.44
2022-11-23T23:12:36.437Z,10.43
2022-11-23T23:15:10.704Z,10.43
2022-11-23T23:17:43.097Z,10.41
2022-11-23T23:20:15.901Z,10.43
2022-11-23T23:22:48.580Z,10.42
2022-11-23T23:25:21.265Z,10.39
2022-11-23T23:27:53.711Z,10.38
2022-11-23T23:30:26.311Z,10.38
2022-11-23T23:33:00.194Z,10.33
2022-11-23T23:35:35.249Z,10.27
2022-11-23T23:38:09.052Z,10.26
2022-11-23T23:40:41.650Z,10.23
2022-11-23T23:43:15.152Z,10.23
2022-11-23T23:45:48.213Z,10.21
2022-11-23T23:48:20.748Z,10.20
2022-11-23T23:50:53.658Z,10.18
2022-11-23T23:53:26.275Z,10.17
2022-11-23T23:56:03.670Z,10.16
2022-11-23T23:58:37.467Z,10.08
